sensor_id;sensor_type;location;lat;lon;timestamp;pressure;altitude;pressure_sealevel;temperature
29423;BMP180;16399;51.686;8.684;2022-12-07T00:01:50;99772.00;;;3.90
29423;BMP180;16399;51.686;8.684;2022-12-07T00:04:52;99781.00;;;4.00
29423;BMP180;16399;51.686;8.684;2022-12-07T00:07:54;99778.00;;;4.00
29423;BMP180;16399;51.686;8.684;2022-12-07T00:11:07;99765.00;;;4.00
29423;BMP180;16399;51.686;8.684;2022-12-07T00:14:14;99768.00;;;4.00
29423;BMP180;16399;51.686;8.684;2022-12-07T00:17:12;99765.00;;;4.00
29423;BMP180;16399;51.686;8.684;2022-12-07T00:20:14;99762.00;;;4.00
29423;BMP180;16399;51.686;8.684;2022-12-07T00:23:17;99756.00;;;4.00
29423;BMP180;16399;51.686;8.684;2022-12-07T00:26:24;99755.00;;;4.10
29423;BMP180;16399;51.686;8.684;2022-12-07T00:29:24;99759.00;;;4.10
29423;BMP180;16399;51.686;8.684;2022-12-07T00:32:26;99753.00;;;4.10
29423;BMP180;16399;51.686;8.684;2022-12-07T00:35:29;99755.00;;;4.10
29423;BMP180;16399;51.686;8.684;2022-12-07T00:38:33;99759.00;;;4.10
29423;BMP180;16399;51.686;8.684;2022-12-07T00:41:35;99751.00;;;4.10
29423;BMP180;16399;51.686;8.684;2022-12-07T00:44:37;99758.00;;;4.20
29423;BMP180;16399;51.686;8.684;2022-12-07T00:47:40;99754.00;;;4.20
29423;BMP180;16399;51.686;8.684;2022-12-07T00:50:42;99757.00;;;4.20
29423;BMP180;16399;51.686;8.684;2022-12-07T00:53:44;99759.00;;;4.20
29423;BMP180;16399;51.686;8.684;2022-12-07T00:56:47;99750.00;;;4.20
29423;BMP180;16399;51.686;8.684;2022-12-07T00:59:49;99747.00;;;4.20
29423;BMP180;16399;51.686;8.684;2022-12-07T01:02:51;99737.00;;;4.20
29423;BMP180;16399;51.686;8.684;2022-12-07T01:05:56;99740.00;;;4.20
29423;BMP180;16399;51.686;8.684;2022-12-07T01:08:58;99735.00;;;4.20
29423;BMP180;16399;51.686;8.684;2022-12-07T01:12:01;99742.00;;;4.20
29423;BMP180;16399;51.686;8.684;2022-12-07T01:15:04;99730.00;;;4.20
29423;BMP180;16399;51.686;8.684;2022-12-07T01:18:07;99734.00;;;4.20
29423;BMP180;16399;51.686;8.684;2022-12-07T01:21:15;99727.00;;;4.20
29423;BMP180;16399;51.686;8.684;2022-12-07T01:24:17;99733.00;;;4.30
29423;BMP180;16399;51.686;8.684;2022-12-07T01:27:20;99739.00;;;4.20
29423;BMP180;16399;51.686;8.684;2022-12-07T01:30:22;99748.00;;;4.30
29423;BMP180;16399;51.686;8.684;2022-12-07T01:33:32;99741.00;;;4.30
29423;BMP180;16399;51.686;8.684;2022-12-07T01:36:32;99742.00;;;4.30
29423;BMP180;16399;51.686;8.684;2022-12-07T01:39:34;99748.00;;;4.30
29423;BMP180;16399;51.686;8.684;2022-12-07T01:42:36;99744.00;;;4.30
29423;BMP180;16399;51.686;8.684;2022-12-07T01:45:40;99744.00;;;4.30
29423;BMP180;16399;51.686;8.684;2022-12-07T01:48:43;99747.00;;;4.30
29423;BMP180;16399;51.686;8.684;2022-12-07T01:51:47;99747.00;;;4.30
29423;BMP180;16399;51.686;8.684;2022-12-07T01:54:51;99750.00;;;4.40
29423;BMP180;16399;51.686;8.684;2022-12-07T01:57:54;99753.00;;;4.40
29423;BMP180;16399;51.686;8.684;2022-12-07T02:00:57;99752.00;;;4.40
29423;BMP180;16399;51.686;8.684;2022-12-07T02:04:00;99755.00;;;4.40
29423;BMP180;16399;51.686;8.684;2022-12-07T02:07:03;99748.00;;;4.40
29423;BMP180;16399;51.686;8.684;2022-12-07T02:10:18;99745.00;;;4.40
29423;BMP180;16399;51.686;8.684;2022-12-07T02:13:23;99738.00;;;4.40
29423;BMP180;16399;51.686;8.684;2022-12-07T02:16:31;99748.00;;;4.40
29423;BMP180;16399;51.686;8.684;2022-12-07T02:23:20;99743.00;;;4.40
29423;BMP180;16399;51.686;8.684;2022-12-07T02:33:07;99727.00;;;4.40
29423;BMP180;16399;51.686;8.684;2022-12-07T02:36:12;99734.00;;;4.40
29423;BMP180;16399;51.686;8.684;2022-12-07T02:39:22;99729.00;;;4.40
29423;BMP180;16399;51.686;8.684;2022-12-07T02:42:26;99724.00;;;4.40
29423;BMP180;16399;51.686;8.684;2022-12-07T02:45:29;99726.00;;;4.40
29423;BMP180;16399;51.686;8.684;2022-12-07T02:48:34;99730.00;;;4.40
29423;BMP180;16399;51.686;8.684;2022-12-07T02:51:42;99724.00;;;4.40
29423;BMP180;16399;51.686;8.684;2022-12-07T02:54:45;99735.00;;;4.40
29423;BMP180;16399;51.686;8.684;2022-12-07T03:08:22;99725.00;;;4.40
29423;BMP180;16399;51.686;8.684;2022-12-07T03:11:41;99720.00;;;4.40
29423;BMP180;16399;51.686;8.684;2022-12-07T03:14:45;99729.00;;;4.40
29423;BMP180;16399;51.686;8.684;2022-12-07T03:17:44;99727.00;;;4.40
29423;BMP180;16399;51.686;8.684;2022-12-07T03:20:48;99727.00;;;4.40
29423;BMP180;16399;51.686;8.684;2022-12-07T03:23:56;99727.00;;;4.40
29423;BMP180;16399;51.686;8.684;2022-12-07T03:27:05;99719.00;;;4.40
29423;BMP180;16399;51.686;8.684;2022-12-07T03:30:15;99711.00;;;4.40
29423;BMP180;16399;51.686;8.684;2022-12-07T03:33:28;99713.00;;;4.40
29423;BMP180;16399;51.686;8.684;2022-12-07T03:36:47;99714.00;;;4.40
29423;BMP180;16399;51.686;8.684;2022-12-07T03:43:12;99708.00;;;4.40
29423;BMP180;16399;51.686;8.684;2022-12-07T03:50:17;99720.00;;;4.40
29423;BMP180;16399;51.686;8.684;2022-12-07T03:53:24;99716.00;;;4.40
29423;BMP180;16399;51.686;8.684;2022-12-07T03:56:28;99715.00;;;4.40
29423;BMP180;16399;51.686;8.684;2022-12-07T03:59:31;99722.00;;;4.40
29423;BMP180;16399;51.686;8.684;2022-12-07T04:02:33;99714.00;;;4.40
29423;BMP180;16399;51.686;8.684;2022-12-07T04:05:36;99719.00;;;4.40
29423;BMP180;16399;51.686;8.684;2022-12-07T04:08:39;99717.00;;;4.40
29423;BMP180;16399;51.686;8.684;2022-12-07T04:11:41;99713.00;;;4.40
29423;BMP180;16399;51.686;8.684;2022-12-07T04:14:43;99713.00;;;4.40
29423;BMP180;16399;51.686;8.684;2022-12-07T04:17:45;99715.00;;;4.40
29423;BMP180;16399;51.686;8.684;2022-12-07T04:20:48;99717.00;;;4.40
29423;BMP180;16399;51.686;8.684;2022-12-07T04:23:50;99713.00;;;4.40
29423;BMP180;16399;51.686;8.684;2022-12-07T04:26:53;99719.00;;;4.40
29423;BMP180;16399;51.686;8.684;2022-12-07T04:29:55;99714.00;;;4.40
29423;BMP180;16399;51.686;8.684;2022-12-07T04:32:57;99713.00;;;4.40
29423;BMP180;16399;51.686;8.684;2022-12-07T04:35:59;99722.00;;;4.30
29423;BMP180;16399;51.686;8.684;2022-12-07T04:39:03;99708.00;;;4.30
29423;BMP180;16399;51.686;8.684;2022-12-07T04:42:05;99715.00;;;4.30
29423;BMP180;16399;51.686;8.684;2022-12-07T04:45:08;99717.00;;;4.30
29423;BMP180;16399;51.686;8.684;2022-12-07T04:48:10;99716.00;;;4.30
29423;BMP180;16399;51.686;8.684;2022-12-07T04:51:14;99713.00;;;4.30
29423;BMP180;16399;51.686;8.684;2022-12-07T04:54:17;99717.00;;;4.30
29423;BMP180;16399;51.686;8.684;2022-12-07T04:57:19;99709.00;;;4.20
29423;BMP180;16399;51.686;8.684;2022-12-07T05:00:22;99718.00;;;4.20
29423;BMP180;16399;51.686;8.684;2022-12-07T05:03:24;99715.00;;;4.20
29423;BMP180;16399;51.686;8.684;2022-12-07T05:06:27;99721.00;;;4.20
29423;BMP180;16399;51.686;8.684;2022-12-07T05:09:29;99716.00;;;4.20
29423;BMP180;16399;51.686;8.684;2022-12-07T05:12:31;99717.00;;;4.20
29423;BMP180;16399;51.686;8.684;2022-12-07T05:15:34;99708.00;;;4.20
29423;BMP180;16399;51.686;8.684;2022-12-07T05:18:36;99723.00;;;4.20
29423;BMP180;16399;51.686;8.684;2022-12-07T05:21:39;99713.00;;;4.10
29423;BMP180;16399;51.686;8.684;2022-12-07T05:24:41;99716.00;;;4.10
29423;BMP180;16399;51.686;8.684;2022-12-07T05:27:44;99723.00;;;4.10
29423;BMP180;16399;51.686;8.684;2022-12-07T05:30:46;99717.00;;;4.10
29423;BMP180;16399;51.686;8.684;2022-12-07T05:33:48;99720.00;;;4.10
29423;BMP180;16399;51.686;8.684;2022-12-07T05:36:51;99712.00;;;4.10
29423;BMP180;16399;51.686;8.684;2022-12-07T05:39:53;99721.00;;;4.00
29423;BMP180;16399;51.686;8.684;2022-12-07T05:42:55;99709.00;;;4.00
29423;BMP180;16399;51.686;8.684;2022-12-07T05:45:58;99711.00;;;4.00
29423;BMP180;16399;51.686;8.684;2022-12-07T05:49:01;99716.00;;;4.00
29423;BMP180;16399;51.686;8.684;2022-12-07T05:52:04;99708.00;;;4.00
29423;BMP180;16399;51.686;8.684;2022-12-07T05:55:07;99709.00;;;4.00
29423;BMP180;16399;51.686;8.684;2022-12-07T05:58:09;99698.00;;;4.00
29423;BMP180;16399;51.686;8.684;2022-12-07T06:01:30;99697.00;;;4.00
29423;BMP180;16399;51.686;8.684;2022-12-07T06:04:35;99687.00;;;3.90
29423;BMP180;16399;51.686;8.684;2022-12-07T06:07:37;99696.00;;;3.90
29423;BMP180;16399;51.686;8.684;2022-12-07T06:10:40;99703.00;;;3.90
29423;BMP180;16399;51.686;8.684;2022-12-07T06:13:42;99705.00;;;3.90
29423;BMP180;16399;51.686;8.684;2022-12-07T06:16:45;99706.00;;;3.90
29423;BMP180;16399;51.686;8.684;2022-12-07T06:19:47;99700.00;;;3.90
29423;BMP180;16399;51.686;8.684;2022-12-07T06:22:49;99700.00;;;3.90
29423;BMP180;16399;51.686;8.684;2022-12-07T06:25:52;99706.00;;;3.90
29423;BMP180;16399;51.686;8.684;2022-12-07T06:28:54;99712.00;;;3.90
29423;BMP180;16399;51.686;8.684;2022-12-07T06:31:56;99716.00;;;3.90
29423;BMP180;16399;51.686;8.684;2022-12-07T06:34:59;99710.00;;;3.90
29423;BMP180;16399;51.686;8.684;2022-12-07T06:38:02;99710.00;;;3.90
29423;BMP180;16399;51.686;8.684;2022-12-07T06:41:04;99713.00;;;3.80
29423;BMP180;16399;51.686;8.684;2022-12-07T06:44:08;99716.00;;;3.80
29423;BMP180;16399;51.686;8.684;2022-12-07T06:47:10;99711.00;;;3.80
29423;BMP180;16399;51.686;8.684;2022-12-07T06:50:12;99716.00;;;3.80
29423;BMP180;16399;51.686;8.684;2022-12-07T06:53:15;99708.00;;;3.80
29423;BMP180;16399;51.686;8.684;2022-12-07T06:56:17;99712.00;;;3.80
29423;BMP180;16399;51.686;8.684;2022-12-07T06:59:19;99709.00;;;3.80
29423;BMP180;16399;51.686;8.684;2022-12-07T07:02:22;99714.00;;;3.80
29423;BMP180;16399;51.686;8.684;2022-12-07T07:05:24;99728.00;;;3.80
29423;BMP180;16399;51.686;8.684;2022-12-07T07:08:26;99720.00;;;3.70
29423;BMP180;16399;51.686;8.684;2022-12-07T07:11:28;99723.00;;;3.70
29423;BMP180;16399;51.686;8.684;2022-12-07T07:14:31;99725.00;;;3.70
29423;BMP180;16399;51.686;8.684;2022-12-07T07:17:34;99715.00;;;3.70
29423;BMP180;16399;51.686;8.684;2022-12-07T07:20:36;99724.00;;;3.70
29423;BMP180;16399;51.686;8.684;2022-12-07T07:23:39;99728.00;;;3.70
29423;BMP180;16399;51.686;8.684;2022-12-07T07:26:41;99730.00;;;3.70
29423;BMP180;16399;51.686;8.684;2022-12-07T07:29:43;99728.00;;;3.70
29423;BMP180;16399;51.686;8.684;2022-12-07T07:32:46;99728.00;;;3.70
29423;BMP180;16399;51.686;8.684;2022-12-07T07:35:48;99729.00;;;3.60
29423;BMP180;16399;51.686;8.684;2022-12-07T07:38:50;99722.00;;;3.60
29423;BMP180;16399;51.686;8.684;2022-12-07T07:41:53;99736.00;;;3.50
29423;BMP180;16399;51.686;8.684;2022-12-07T07:44:55;99731.00;;;3.50
29423;BMP180;16399;51.686;8.684;2022-12-07T07:47:57;99742.00;;;3.50
29423;BMP180;16399;51.686;8.684;2022-12-07T07:50:59;99736.00;;;3.50
29423;BMP180;16399;51.686;8.684;2022-12-07T07:54:02;99750.00;;;3.50
29423;BMP180;16399;51.686;8.684;2022-12-07T07:57:04;99737.00;;;3.50
29423;BMP180;16399;51.686;8.684;2022-12-07T08:00:15;99743.00;;;3.50
29423;BMP180;16399;51.686;8.684;2022-12-07T08:03:18;99747.00;;;3.50
29423;BMP180;16399;51.686;8.684;2022-12-07T08:06:20;99746.00;;;3.50
29423;BMP180;16399;51.686;8.684;2022-12-07T08:09:22;99751.00;;;3.50
29423;BMP180;16399;51.686;8.684;2022-12-07T08:12:24;99747.00;;;3.60
29423;BMP180;16399;51.686;8.684;2022-12-07T08:15:29;99750.00;;;3.60
29423;BMP180;16399;51.686;8.684;2022-12-07T08:18:34;99741.00;;;3.60
29423;BMP180;16399;51.686;8.684;2022-12-07T08:21:35;99744.00;;;3.60
29423;BMP180;16399;51.686;8.684;2022-12-07T08:24:37;99745.00;;;3.60
29423;BMP180;16399;51.686;8.684;2022-12-07T08:27:40;99752.00;;;3.70
29423;BMP180;16399;51.686;8.684;2022-12-07T08:30:42;99751.00;;;3.70
29423;BMP180;16399;51.686;8.684;2022-12-07T08:33:48;99749.00;;;3.70
29423;BMP180;16399;51.686;8.684;2022-12-07T08:36:50;99754.00;;;3.70
29423;BMP180;16399;51.686;8.684;2022-12-07T08:39:52;99760.00;;;3.70
29423;BMP180;16399;51.686;8.684;2022-12-07T08:42:55;99752.00;;;3.70
29423;BMP180;16399;51.686;8.684;2022-12-07T08:49:28;99764.00;;;3.80
29423;BMP180;16399;51.686;8.684;2022-12-07T08:52:31;99754.00;;;3.80
29423;BMP180;16399;51.686;8.684;2022-12-07T08:55:34;99754.00;;;3.80
29423;BMP180;16399;51.686;8.684;2022-12-07T08:58:37;99754.00;;;3.90
29423;BMP180;16399;51.686;8.684;2022-12-07T09:01:40;99760.00;;;3.90
29423;BMP180;16399;51.686;8.684;2022-12-07T09:04:42;99751.00;;;3.90
29423;BMP180;16399;51.686;8.684;2022-12-07T09:07:48;99763.00;;;4.00
29423;BMP180;16399;51.686;8.684;2022-12-07T09:10:50;99754.00;;;4.00
29423;BMP180;16399;51.686;8.684;2022-12-07T09:13:52;99756.00;;;4.00
29423;BMP180;16399;51.686;8.684;2022-12-07T09:16:55;99756.00;;;4.00
29423;BMP180;16399;51.686;8.684;2022-12-07T09:19:57;99753.00;;;4.10
29423;BMP180;16399;51.686;8.684;2022-12-07T09:22:59;99756.00;;;4.10
29423;BMP180;16399;51.686;8.684;2022-12-07T09:26:03;99750.00;;;4.10
29423;BMP180;16399;51.686;8.684;2022-12-07T09:29:05;99759.00;;;4.10
29423;BMP180;16399;51.686;8.684;2022-12-07T09:32:08;99755.00;;;4.10
29423;BMP180;16399;51.686;8.684;2022-12-07T09:35:10;99755.00;;;4.10
29423;BMP180;16399;51.686;8.684;2022-12-07T09:38:13;99760.00;;;4.10
29423;BMP180;16399;51.686;8.684;2022-12-07T09:41:15;99758.00;;;4.10
29423;BMP180;16399;51.686;8.684;2022-12-07T09:44:24;99749.00;;;4.10
29423;BMP180;16399;51.686;8.684;2022-12-07T09:47:23;99748.00;;;4.20
29423;BMP180;16399;51.686;8.684;2022-12-07T09:50:27;99752.00;;;4.20
29423;BMP180;16399;51.686;8.684;2022-12-07T09:53:35;99746.00;;;4.30
29423;BMP180;16399;51.686;8.684;2022-12-07T09:56:38;99744.00;;;4.30
29423;BMP180;16399;51.686;8.684;2022-12-07T09:59:40;99747.00;;;4.40
29423;BMP180;16399;51.686;8.684;2022-12-07T10:02:57;99737.00;;;4.50
29423;BMP180;16399;51.686;8.684;2022-12-07T10:06:00;99738.00;;;4.60
29423;BMP180;16399;51.686;8.684;2022-12-07T10:09:13;99742.00;;;4.70
29423;BMP180;16399;51.686;8.684;2022-12-07T10:12:12;99738.00;;;4.80
29423;BMP180;16399;51.686;8.684;2022-12-07T10:15:14;99734.00;;;4.80
29423;BMP180;16399;51.686;8.684;2022-12-07T10:18:26;99736.00;;;4.80
29423;BMP180;16399;51.686;8.684;2022-12-07T10:21:28;99726.00;;;4.80
29423;BMP180;16399;51.686;8.684;2022-12-07T10:24:31;99738.00;;;4.80
29423;BMP180;16399;51.686;8.684;2022-12-07T10:27:33;99735.00;;;4.80
29423;BMP180;16399;51.686;8.684;2022-12-07T10:34:01;99719.00;;;4.70
29423;BMP180;16399;51.686;8.684;2022-12-07T10:40:29;99731.00;;;4.70
29423;BMP180;16399;51.686;8.684;2022-12-07T10:43:32;99727.00;;;4.70
29423;BMP180;16399;51.686;8.684;2022-12-07T10:46:43;99712.00;;;4.80
29423;BMP180;16399;51.686;8.684;2022-12-07T10:53:36;99726.00;;;4.70
29423;BMP180;16399;51.686;8.684;2022-12-07T11:00:08;99723.00;;;4.60
29423;BMP180;16399;51.686;8.684;2022-12-07T11:03:26;99721.00;;;4.60
29423;BMP180;16399;51.686;8.684;2022-12-07T11:06:39;99714.00;;;4.70
29423;BMP180;16399;51.686;8.684;2022-12-07T11:09:56;99710.00;;;4.70
29423;BMP180;16399;51.686;8.684;2022-12-07T11:19:52;99706.00;;;4.70
29423;BMP180;16399;51.686;8.684;2022-12-07T11:23:03;99696.00;;;4.70
29423;BMP180;16399;51.686;8.684;2022-12-07T11:26:21;99695.00;;;4.70
29423;BMP180;16399;51.686;8.684;2022-12-07T11:29:29;99680.00;;;4.70
29423;BMP180;16399;51.686;8.684;2022-12-07T11:32:39;99683.00;;;4.80
29423;BMP180;16399;51.686;8.684;2022-12-07T11:39:02;99686.00;;;4.90
29423;BMP180;16399;51.686;8.684;2022-12-07T11:42:16;99679.00;;;4.90
29423;BMP180;16399;51.686;8.684;2022-12-07T11:45:24;99670.00;;;5.00
29423;BMP180;16399;51.686;8.684;2022-12-07T11:48:38;99674.00;;;5.00
29423;BMP180;16399;51.686;8.684;2022-12-07T11:51:41;99652.00;;;5.00
29423;BMP180;16399;51.686;8.684;2022-12-07T11:54:46;99652.00;;;5.00
29423;BMP180;16399;51.686;8.684;2022-12-07T11:57:50;99651.00;;;5.10
29423;BMP180;16399;51.686;8.684;2022-12-07T12:00:55;99652.00;;;5.10
29423;BMP180;16399;51.686;8.684;2022-12-07T12:07:21;99651.00;;;5.10
29423;BMP180;16399;51.686;8.684;2022-12-07T12:10:42;99650.00;;;5.10
29423;BMP180;16399;51.686;8.684;2022-12-07T12:13:56;99648.00;;;5.10
29423;BMP180;16399;51.686;8.684;2022-12-07T12:23:50;99655.00;;;5.10
29423;BMP180;16399;51.686;8.684;2022-12-07T12:27:03;99646.00;;;5.10
29423;BMP180;16399;51.686;8.684;2022-12-07T12:30:29;99643.00;;;5.10
29423;BMP180;16399;51.686;8.684;2022-12-07T12:33:25;99648.00;;;5.10
29423;BMP180;16399;51.686;8.684;2022-12-07T12:39:35;99639.00;;;5.20
29423;BMP180;16399;51.686;8.684;2022-12-07T12:42:48;99621.00;;;5.20
29423;BMP180;16399;51.686;8.684;2022-12-07T12:46:35;99625.00;;;5.20
29423;BMP180;16399;51.686;8.684;2022-12-07T12:49:23;99639.00;;;5.10
29423;BMP180;16399;51.686;8.684;2022-12-07T12:55:47;99626.00;;;5.10
29423;BMP180;16399;51.686;8.684;2022-12-07T12:58:48;99619.00;;;5.10
29423;BMP180;16399;51.686;8.684;2022-12-07T13:02:34;99620.00;;;5.20
29423;BMP180;16399;51.686;8.684;2022-12-07T13:08:21;99610.00;;;5.40
29423;BMP180;16399;51.686;8.684;2022-12-07T13:11:41;99607.00;;;5.50
29423;BMP180;16399;51.686;8.684;2022-12-07T13:14:55;99604.00;;;5.60
29423;BMP180;16399;51.686;8.684;2022-12-07T13:18:00;99593.00;;;5.70
29423;BMP180;16399;51.686;8.684;2022-12-07T13:24:14;99603.00;;;5.70
29423;BMP180;16399;51.686;8.684;2022-12-07T13:27:17;99601.00;;;5.70
29423;BMP180;16399;51.686;8.684;2022-12-07T13:30:22;99600.00;;;5.60
29423;BMP180;16399;51.686;8.684;2022-12-07T13:33:24;99598.00;;;5.50
29423;BMP180;16399;51.686;8.684;2022-12-07T13:36:31;99593.00;;;5.40
29423;BMP180;16399;51.686;8.684;2022-12-07T13:39:35;99586.00;;;5.40
29423;BMP180;16399;51.686;8.684;2022-12-07T13:42:39;99590.00;;;5.30
29423;BMP180;16399;51.686;8.684;2022-12-07T13:45:41;99600.00;;;5.30
29423;BMP180;16399;51.686;8.684;2022-12-07T13:48:50;99581.00;;;5.20
29423;BMP180;16399;51.686;8.684;2022-12-07T13:51:54;99591.00;;;5.20
29423;BMP180;16399;51.686;8.684;2022-12-07T13:55:11;99594.00;;;5.20
29423;BMP180;16399;51.686;8.684;2022-12-07T13:58:07;99593.00;;;5.20
29423;BMP180;16399;51.686;8.684;2022-12-07T14:01:09;99587.00;;;5.20
29423;BMP180;16399;51.686;8.684;2022-12-07T14:04:33;99584.00;;;5.20
29423;BMP180;16399;51.686;8.684;2022-12-07T14:07:34;99573.00;;;5.20
29423;BMP180;16399;51.686;8.684;2022-12-07T14:10:53;99578.00;;;5.10
29423;BMP180;16399;51.686;8.684;2022-12-07T14:13:57;99569.00;;;5.10
29423;BMP180;16399;51.686;8.684;2022-12-07T14:17:14;99571.00;;;5.10
29423;BMP180;16399;51.686;8.684;2022-12-07T14:20:41;99574.00;;;5.10
29423;BMP180;16399;51.686;8.684;2022-12-07T14:23:25;99570.00;;;5.10
29423;BMP180;16399;51.686;8.684;2022-12-07T14:26:28;99568.00;;;5.00
29423;BMP180;16399;51.686;8.684;2022-12-07T14:29:32;99574.00;;;5.00
29423;BMP180;16399;51.686;8.684;2022-12-07T14:32:37;99567.00;;;5.00
29423;BMP180;16399;51.686;8.684;2022-12-07T14:35:39;99572.00;;;4.90
29423;BMP180;16399;51.686;8.684;2022-12-07T14:38:42;99579.00;;;4.90
29423;BMP180;16399;51.686;8.684;2022-12-07T14:41:44;99571.00;;;4.90
29423;BMP180;16399;51.686;8.684;2022-12-07T14:44:52;99572.00;;;4.80
29423;BMP180;16399;51.686;8.684;2022-12-07T14:47:54;99580.00;;;4.80
29423;BMP180;16399;51.686;8.684;2022-12-07T14:50:56;99578.00;;;4.80
29423;BMP180;16399;51.686;8.684;2022-12-07T14:53:59;99580.00;;;4.70
29423;BMP180;16399;51.686;8.684;2022-12-07T14:57:01;99571.00;;;4.70
29423;BMP180;16399;51.686;8.684;2022-12-07T15:00:04;99569.00;;;4.70
29423;BMP180;16399;51.686;8.684;2022-12-07T15:03:07;99570.00;;;4.60
29423;BMP180;16399;51.686;8.684;2022-12-07T15:06:13;99554.00;;;4.60
29423;BMP180;16399;51.686;8.684;2022-12-07T15:09:14;99562.00;;;4.50
29423;BMP180;16399;51.686;8.684;2022-12-07T15:12:16;99571.00;;;4.40
29423;BMP180;16399;51.686;8.684;2022-12-07T15:15:19;99564.00;;;4.30
29423;BMP180;16399;51.686;8.684;2022-12-07T15:18:22;99573.00;;;4.20
29423;BMP180;16399;51.686;8.684;2022-12-07T15:21:25;99571.00;;;4.10
29423;BMP180;16399;51.686;8.684;2022-12-07T15:24:27;99566.00;;;4.00
29423;BMP180;16399;51.686;8.684;2022-12-07T15:27:30;99569.00;;;3.90
29423;BMP180;16399;51.686;8.684;2022-12-07T15:30:32;99575.00;;;3.90
29423;BMP180;16399;51.686;8.684;2022-12-07T15:33:35;99566.00;;;3.80
29423;BMP180;16399;51.686;8.684;2022-12-07T15:36:37;99575.00;;;3.70
29423;BMP180;16399;51.686;8.684;2022-12-07T15:39:39;99577.00;;;3.70
29423;BMP180;16399;51.686;8.684;2022-12-07T15:42:42;99562.00;;;3.70
29423;BMP180;16399;51.686;8.684;2022-12-07T15:45:44;99562.00;;;3.70
29423;BMP180;16399;51.686;8.684;2022-12-07T15:48:48;99560.00;;;3.70
29423;BMP180;16399;51.686;8.684;2022-12-07T15:51:50;99553.00;;;3.70
29423;BMP180;16399;51.686;8.684;2022-12-07T15:54:52;99556.00;;;3.70
29423;BMP180;16399;51.686;8.684;2022-12-07T15:57:55;99552.00;;;3.80
29423;BMP180;16399;51.686;8.684;2022-12-07T16:00:57;99556.00;;;3.80
29423;BMP180;16399;51.686;8.684;2022-12-07T16:03:59;99545.00;;;3.80
29423;BMP180;16399;51.686;8.684;2022-12-07T16:07:01;99543.00;;;3.80
29423;BMP180;16399;51.686;8.684;2022-12-07T16:10:05;99550.00;;;3.80
29423;BMP180;16399;51.686;8.684;2022-12-07T16:13:07;99546.00;;;3.80
29423;BMP180;16399;51.686;8.684;2022-12-07T16:16:15;99537.00;;;3.80
29423;BMP180;16399;51.686;8.684;2022-12-07T16:19:17;99542.00;;;3.80
29423;BMP180;16399;51.686;8.684;2022-12-07T16:22:20;99534.00;;;3.90
29423;BMP180;16399;51.686;8.684;2022-12-07T16:25:22;99540.00;;;3.80
29423;BMP180;16399;51.686;8.684;2022-12-07T16:28:25;99532.00;;;3.90
29423;BMP180;16399;51.686;8.684;2022-12-07T16:31:27;99535.00;;;3.90
29423;BMP180;16399;51.686;8.684;2022-12-07T16:34:30;99532.00;;;3.90
29423;BMP180;16399;51.686;8.684;2022-12-07T16:37:32;99531.00;;;3.80
29423;BMP180;16399;51.686;8.684;2022-12-07T16:40:35;99520.00;;;3.80
29423;BMP180;16399;51.686;8.684;2022-12-07T16:43:37;99532.00;;;3.80
29423;BMP180;16399;51.686;8.684;2022-12-07T16:46:40;99525.00;;;3.80
29423;BMP180;16399;51.686;8.684;2022-12-07T16:49:43;99526.00;;;3.80
29423;BMP180;16399;51.686;8.684;2022-12-07T16:52:45;99528.00;;;3.80
29423;BMP180;16399;51.686;8.684;2022-12-07T16:55:47;99526.00;;;3.80
29423;BMP180;16399;51.686;8.684;2022-12-07T16:58:50;99530.00;;;3.70
29423;BMP180;16399;51.686;8.684;2022-12-07T17:01:52;99528.00;;;3.70
29423;BMP180;16399;51.686;8.684;2022-12-07T17:04:54;99520.00;;;3.70
29423;BMP180;16399;51.686;8.684;2022-12-07T17:07:57;99526.00;;;3.70
29423;BMP180;16399;51.686;8.684;2022-12-07T17:10:59;99524.00;;;3.60
29423;BMP180;16399;51.686;8.684;2022-12-07T17:14:02;99526.00;;;3.60
29423;BMP180;16399;51.686;8.684;2022-12-07T17:17:22;99522.00;;;3.60
29423;BMP180;16399;51.686;8.684;2022-12-07T17:20:26;99523.00;;;3.50
29423;BMP180;16399;51.686;8.684;2022-12-07T17:23:29;99523.00;;;3.50
29423;BMP180;16399;51.686;8.684;2022-12-07T17:26:32;99517.00;;;3.50
29423;BMP180;16399;51.686;8.684;2022-12-07T17:29:34;99506.00;;;3.50
29423;BMP180;16399;51.686;8.684;2022-12-07T17:32:37;99524.00;;;3.50
29423;BMP180;16399;51.686;8.684;2022-12-07T17:35:39;99513.00;;;3.50
29423;BMP180;16399;51.686;8.684;2022-12-07T17:38:41;99503.00;;;3.50
29423;BMP180;16399;51.686;8.684;2022-12-07T17:41:44;99504.00;;;3.60
29423;BMP180;16399;51.686;8.684;2022-12-07T17:45:08;99503.00;;;3.60
29423;BMP180;16399;51.686;8.684;2022-12-07T17:48:11;99500.00;;;3.60
29423;BMP180;16399;51.686;8.684;2022-12-07T17:51:14;99501.00;;;3.70
29423;BMP180;16399;51.686;8.684;2022-12-07T17:54:18;99505.00;;;3.70
29423;BMP180;16399;51.686;8.684;2022-12-07T17:57:20;99486.00;;;3.70
29423;BMP180;16399;51.686;8.684;2022-12-07T18:00:22;99488.00;;;3.70
29423;BMP180;16399;51.686;8.684;2022-12-07T18:03:25;99481.00;;;3.70
29423;BMP180;16399;51.686;8.684;2022-12-07T18:06:27;99485.00;;;3.80
29423;BMP180;16399;51.686;8.684;2022-12-07T18:09:29;99489.00;;;3.80
29423;BMP180;16399;51.686;8.684;2022-12-07T18:12:32;99488.00;;;3.80
29423;BMP180;16399;51.686;8.684;2022-12-07T18:15:34;99487.00;;;3.80
29423;BMP180;16399;51.686;8.684;2022-12-07T18:18:36;99479.00;;;3.80
29423;BMP180;16399;51.686;8.684;2022-12-07T18:21:39;99471.00;;;3.80
29423;BMP180;16399;51.686;8.684;2022-12-07T18:24:41;99476.00;;;3.90
29423;BMP180;16399;51.686;8.684;2022-12-07T18:27:44;99468.00;;;3.90
29423;BMP180;16399;51.686;8.684;2022-12-07T18:30:46;99467.00;;;3.90
29423;BMP180;16399;51.686;8.684;2022-12-07T18:37:22;99472.00;;;3.90
29423;BMP180;16399;51.686;8.684;2022-12-07T18:40:26;99449.00;;;3.90
29423;BMP180;16399;51.686;8.684;2022-12-07T18:43:28;99467.00;;;3.90
29423;BMP180;16399;51.686;8.684;2022-12-07T18:46:31;99468.00;;;4.00
29423;BMP180;16399;51.686;8.684;2022-12-07T18:49:33;99460.00;;;4.00
29423;BMP180;16399;51.686;8.684;2022-12-07T18:52:36;99454.00;;;4.00
29423;BMP180;16399;51.686;8.684;2022-12-07T18:55:38;99457.00;;;4.10
29423;BMP180;16399;51.686;8.684;2022-12-07T18:58:41;99447.00;;;4.10
29423;BMP180;16399;51.686;8.684;2022-12-07T19:01:48;99448.00;;;4.10
29423;BMP180;16399;51.686;8.684;2022-12-07T19:04:50;99447.00;;;4.10
29423;BMP180;16399;51.686;8.684;2022-12-07T19:07:53;99442.00;;;4.10
29423;BMP180;16399;51.686;8.684;2022-12-07T19:10:55;99442.00;;;4.10
29423;BMP180;16399;51.686;8.684;2022-12-07T19:13:59;99441.00;;;4.00
29423;BMP180;16399;51.686;8.684;2022-12-07T19:17:10;99437.00;;;4.10
29423;BMP180;16399;51.686;8.684;2022-12-07T19:20:14;99432.00;;;4.10